• Join FlightAware (Why Join?)
  • Login
  • US Flag 
04:03AM EDT


 

Airport Tracker/Info


-or-


 

Live Flight TrackerFlight Track Log ✈ CSN6870 ✈ 27-Feb-2014 ✈ ZWAK / AKU - ZWWW / URC

Flight Track Log - Related Links

Times and Time Zones

All times are in EST time to prevent confusion due to time zone crossing. See the CSN6870 flight status page for this flight to view local times or setup timezone preferences in your user account.

Time Position Orientation Groundspeed Altitude Reporting Facility
EST Latitude Longitude Course Direction KTS MPH feet Rate Location/Type
10:37AM 41.4697 80.7938 61° Northeast  Level Estimated
10:38AM 41.5212 80.9198 61° Northeast  Level Estimated
10:39AM 41.5725 81.0461 61° Northeast  Level Estimated
10:40AM 41.6237 81.1725 62° Northeast  Level Estimated
10:41AM 41.6747 81.2991 62° Northeast  Level Estimated
10:42AM 41.7256 81.4259 62° Northeast  Level Estimated
10:43AM 41.7764 81.5530 62° Northeast  Level Estimated
10:44AM 41.8270 81.6802 62° Northeast  Level Estimated
10:45AM 41.8775 81.8076 62° Northeast  Level Estimated
10:46AM 41.9278 81.9353 62° Northeast  Level Estimated
10:47AM 41.9780 82.0631 62° Northeast  Level Estimated
10:48AM 42.0281 82.1912 62° Northeast  Level Estimated
10:49AM 42.0780 82.3194 62° Northeast  Level Estimated
10:50AM 42.1278 82.4478 62° Northeast  Level Estimated
10:51AM 42.1774 82.5765 62° Northeast  Level Estimated
10:52AM 42.2269 82.7053 63° Northeast  Level Estimated
10:53AM 42.2762 82.8344 63° Northeast  Level Estimated
10:54AM 42.3254 82.9636 63° Northeast  Level Estimated
10:55AM 42.3745 83.0931 63° Northeast  Level Estimated
10:56AM 42.4234 83.2227 63° Northeast  Level Estimated
10:57AM 42.4721 83.3526 63° Northeast  Level Estimated
10:58AM 42.5207 83.4827 63° Northeast  Level Estimated
10:59AM 42.5692 83.6129 63° Northeast  Level Estimated
11:00AM 42.6175 83.7434 63° Northeast  Level Estimated
11:01AM 42.6657 83.8740 63° Northeast  Level Estimated
11:02AM 42.7137 84.0049 63° Northeast  Level Estimated
11:03AM 42.7616 84.1360 64° Northeast  Level Estimated
11:04AM 42.8093 84.2673 64° Northeast  Level Estimated
11:05AM 42.8569 84.3987 64° Northeast  Level Estimated
11:06AM 42.9043 84.5304 64° Northeast  Level Estimated
11:07AM 42.9516 84.6623 64° Northeast  Level Estimated
11:08AM 42.9987 84.7944 64° Northeast  Level Estimated
11:09AM 43.0457 84.9266 64° Northeast  Level Estimated
11:10AM 43.0925 85.0591 64° Northeast  Level Estimated
11:11AM 43.1391 85.1918 64° Northeast  Level Estimated
11:12AM 43.1856 85.3247 64° Northeast  Level Estimated
11:13AM 43.2320 85.4578 64° Northeast  Level Estimated
11:14AM 43.2782 85.5911 65° Northeast  Level Estimated
11:15AM 43.3242 85.7246 65° Northeast  Level Estimated
11:16AM 43.3701 85.8583 65° Northeast  Level Estimated
11:17AM 43.4159 85.9922 65° Northeast  Level Estimated
11:18AM 43.4614 86.1263 65° Northeast  Level Estimated
11:19AM 43.5068 86.2606 65° Northeast  Level Estimated
11:20AM 43.5521 86.3951 65° Northeast  Level Estimated
11:21AM 43.5972 86.5298 65° Northeast  Level Estimated
11:22AM 43.6421 86.6647 65° Northeast  Level Estimated
11:23AM 43.6869 86.7999 65° Northeast  Level Estimated
11:24AM 43.7316 86.9352 65° Northeast  Level Estimated
11:25AM 43.7760 87.0707 66° East  Level Estimated
11:26AM 43.8203 87.2064 66° East  Level Estimated
11:27AM 43.8645 87.3423 66° East  Level Estimated
11:28AM 43.9071 87.4742 66° East  Level Estimated
11:29AM 43.9071 87.4742 144° Southeast  Level Estimated
11:30AM 43.9071 87.4742 144° Southeast  Level Estimated
11:31AM 43.9071 87.4742 144° Southeast  Level Estimated
11:32AM 43.9071 87.4742 144° Southeast  Level Estimated
11:33AM 43.9071 87.4742 144° Southeast  Level Estimated
11:34AM 43.9071 87.4742 144° Southeast  Level Estimated
11:35AM 43.9071 87.4742 144° Southeast  Level Estimated
11:36AM 43.9071 87.4742 144° Southeast  Level Estimated
11:37AM 43.9071 87.4742 144° Southeast  Level Estimated
11:38AM 43.9071 87.4742 144° Southeast  Level Estimated
11:39AM 43.9071 87.4742 144° Southeast  Level Estimated
11:40AM 43.9071 87.4742 144° Southeast  Level Estimated
11:41AM 43.9071 87.4742 144° Southeast  Level Estimated
11:42AM 43.9071 87.4742 144° Southeast  Level Estimated
11:43AM 43.9071 87.4742 144° Southeast  Level Estimated
11:44AM 43.9071 87.4742 144° Southeast  Level Estimated